sensor_id;sensor_type;location;lat;lon;timestamp;P1;durP1;ratioP1;P2;durP2;ratioP2
60908;SDS011;46780;48.128;-1.704;2023-07-08T00:00:10;13.10;;;5.75;;
60908;SDS011;46780;48.128;-1.704;2023-07-08T00:02:39;15.18;;;5.95;;
60908;SDS011;46780;48.128;-1.704;2023-07-08T00:05:07;11.25;;;5.97;;
60908;SDS011;46780;48.128;-1.704;2023-07-08T00:07:33;12.18;;;5.60;;
60908;SDS011;46780;48.128;-1.704;2023-07-08T00:10:00;14.65;;;5.97;;
60908;SDS011;46780;48.128;-1.704;2023-07-08T00:12:27;13.55;;;5.85;;
60908;SDS011;46780;48.128;-1.704;2023-07-08T00:14:53;14.77;;;5.85;;
60908;SDS011;46780;48.128;-1.704;2023-07-08T00:17:21;12.05;;;5.30;;
60908;SDS011;46780;48.128;-1.704;2023-07-08T00:19:47;13.32;;;5.97;;
60908;SDS011;46780;48.128;-1.704;2023-07-08T00:22:14;11.70;;;5.57;;
60908;SDS011;46780;48.128;-1.704;2023-07-08T00:24:41;11.75;;;5.40;;
60908;SDS011;46780;48.128;-1.704;2023-07-08T00:27:08;13.18;;;5.32;;
60908;SDS011;46780;48.128;-1.704;2023-07-08T00:29:37;13.48;;;5.50;;
60908;SDS011;46780;48.128;-1.704;2023-07-08T00:32:08;11.25;;;5.10;;
60908;SDS011;46780;48.128;-1.704;2023-07-08T00:34:38;14.18;;;5.13;;
60908;SDS011;46780;48.128;-1.704;2023-07-08T00:37:04;13.45;;;5.35;;
60908;SDS011;46780;48.128;-1.704;2023-07-08T00:39:33;11.65;;;5.25;;
60908;SDS011;46780;48.128;-1.704;2023-07-08T00:42:00;11.65;;;5.60;;
60908;SDS011;46780;48.128;-1.704;2023-07-08T00:44:30;14.40;;;5.40;;
60908;SDS011;46780;48.128;-1.704;2023-07-08T00:47:02;13.02;;;5.72;;
60908;SDS011;46780;48.128;-1.704;2023-07-08T00:49:34;14.27;;;5.75;;
60908;SDS011;46780;48.128;-1.704;2023-07-08T00:52:19;14.82;;;5.75;;
60908;SDS011;46780;48.128;-1.704;2023-07-08T00:54:51;11.55;;;5.55;;
60908;SDS011;46780;48.128;-1.704;2023-07-08T00:57:19;13.60;;;5.50;;
60908;SDS011;46780;48.128;-1.704;2023-07-08T00:59:48;14.95;;;5.50;;
60908;SDS011;46780;48.128;-1.704;2023-07-08T01:02:19;12.90;;;5.20;;
60908;SDS011;46780;48.128;-1.704;2023-07-08T01:04:53;12.93;;;5.90;;
60908;SDS011;46780;48.128;-1.704;2023-07-08T01:07:24;15.90;;;5.68;;
60908;SDS011;46780;48.128;-1.704;2023-07-08T01:09:52;13.95;;;5.75;;
60908;SDS011;46780;48.128;-1.704;2023-07-08T01:12:23;12.57;;;5.47;;
60908;SDS011;46780;48.128;-1.704;2023-07-08T01:14:55;15.82;;;5.60;;
60908;SDS011;46780;48.128;-1.704;2023-07-08T01:17:22;14.27;;;6.15;;
60908;SDS011;46780;48.128;-1.704;2023-07-08T01:19:50;15.32;;;5.82;;
60908;SDS011;46780;48.128;-1.704;2023-07-08T01:22:18;13.48;;;5.60;;
60908;SDS011;46780;48.128;-1.704;2023-07-08T01:24:45;15.00;;;6.07;;
60908;SDS011;46780;48.128;-1.704;2023-07-08T01:27:13;14.25;;;5.93;;
60908;SDS011;46780;48.128;-1.704;2023-07-08T01:29:42;15.05;;;5.78;;
60908;SDS011;46780;48.128;-1.704;2023-07-08T01:32:09;10.05;;;5.00;;
60908;SDS011;46780;48.128;-1.704;2023-07-08T01:34:38;15.13;;;5.97;;
60908;SDS011;46780;48.128;-1.704;2023-07-08T01:37:09;12.88;;;5.00;;
60908;SDS011;46780;48.128;-1.704;2023-07-08T01:39:39;11.13;;;5.40;;
60908;SDS011;46780;48.128;-1.704;2023-07-08T01:42:05;12.65;;;5.15;;
60908;SDS011;46780;48.128;-1.704;2023-07-08T01:44:33;12.10;;;5.22;;
60908;SDS011;46780;48.128;-1.704;2023-07-08T01:47:02;11.20;;;4.80;;
60908;SDS011;46780;48.128;-1.704;2023-07-08T01:49:32;12.18;;;5.03;;
60908;SDS011;46780;48.128;-1.704;2023-07-08T01:52:01;14.53;;;4.80;;
60908;SDS011;46780;48.128;-1.704;2023-07-08T01:54:28;12.68;;;5.15;;
60908;SDS011;46780;48.128;-1.704;2023-07-08T01:56:56;12.48;;;4.95;;
60908;SDS011;46780;48.128;-1.704;2023-07-08T01:59:23;12.73;;;4.70;;
60908;SDS011;46780;48.128;-1.704;2023-07-08T02:01:50;14.75;;;5.45;;
60908;SDS011;46780;48.128;-1.704;2023-07-08T02:04:17;13.70;;;5.55;;
60908;SDS011;46780;48.128;-1.704;2023-07-08T02:06:43;12.57;;;4.78;;
60908;SDS011;46780;48.128;-1.704;2023-07-08T02:09:17;10.25;;;5.10;;
60908;SDS011;46780;48.128;-1.704;2023-07-08T02:11:43;14.75;;;5.20;;
60908;SDS011;46780;48.128;-1.704;2023-07-08T02:14:11;11.00;;;5.50;;
60908;SDS011;46780;48.128;-1.704;2023-07-08T02:16:38;13.90;;;5.78;;
60908;SDS011;46780;48.128;-1.704;2023-07-08T02:19:04;14.10;;;5.80;;
60908;SDS011;46780;48.128;-1.704;2023-07-08T02:21:31;12.32;;;6.05;;
60908;SDS011;46780;48.128;-1.704;2023-07-08T02:23:57;13.57;;;6.10;;
60908;SDS011;46780;48.128;-1.704;2023-07-08T02:26:26;14.57;;;5.80;;
60908;SDS011;46780;48.128;-1.704;2023-07-08T02:28:52;11.52;;;5.80;;
60908;SDS011;46780;48.128;-1.704;2023-07-08T02:31:20;12.52;;;6.32;;
60908;SDS011;46780;48.128;-1.704;2023-07-08T02:33:47;15.88;;;7.57;;
60908;SDS011;46780;48.128;-1.704;2023-07-08T02:36:13;16.65;;;6.78;;
60908;SDS011;46780;48.128;-1.704;2023-07-08T02:38:40;16.80;;;7.47;;
60908;SDS011;46780;48.128;-1.704;2023-07-08T02:41:07;16.08;;;6.57;;
60908;SDS011;46780;48.128;-1.704;2023-07-08T02:43:33;13.52;;;6.57;;
60908;SDS011;46780;48.128;-1.704;2023-07-08T02:46:00;14.35;;;6.57;;
60908;SDS011;46780;48.128;-1.704;2023-07-08T02:48:27;14.60;;;6.60;;
60908;SDS011;46780;48.128;-1.704;2023-07-08T02:50:58;14.77;;;6.60;;
60908;SDS011;46780;48.128;-1.704;2023-07-08T02:53:25;13.88;;;6.50;;
60908;SDS011;46780;48.128;-1.704;2023-07-08T02:55:51;15.88;;;6.55;;
60908;SDS011;46780;48.128;-1.704;2023-07-08T02:58:18;12.95;;;6.57;;
60908;SDS011;46780;48.128;-1.704;2023-07-08T03:00:44;13.32;;;6.60;;
60908;SDS011;46780;48.128;-1.704;2023-07-08T03:03:11;16.38;;;6.60;;
60908;SDS011;46780;48.128;-1.704;2023-07-08T03:05:39;14.52;;;6.40;;
60908;SDS011;46780;48.128;-1.704;2023-07-08T03:08:05;15.30;;;6.20;;
60908;SDS011;46780;48.128;-1.704;2023-07-08T03:10:32;12.80;;;6.45;;
60908;SDS011;46780;48.128;-1.704;2023-07-08T03:12:58;16.00;;;6.72;;
60908;SDS011;46780;48.128;-1.704;2023-07-08T03:15:25;12.30;;;6.15;;
60908;SDS011;46780;48.128;-1.704;2023-07-08T03:17:51;15.10;;;6.78;;
60908;SDS011;46780;48.128;-1.704;2023-07-08T03:20:18;14.52;;;6.32;;
60908;SDS011;46780;48.128;-1.704;2023-07-08T03:22:46;12.18;;;6.25;;
60908;SDS011;46780;48.128;-1.704;2023-07-08T03:25:12;14.00;;;6.50;;
60908;SDS011;46780;48.128;-1.704;2023-07-08T03:27:39;11.85;;;6.25;;
60908;SDS011;46780;48.128;-1.704;2023-07-08T03:30:07;13.80;;;6.45;;
60908;SDS011;46780;48.128;-1.704;2023-07-08T03:32:34;17.13;;;6.72;;
60908;SDS011;46780;48.128;-1.704;2023-07-08T03:35:00;14.80;;;5.97;;
60908;SDS011;46780;48.128;-1.704;2023-07-08T03:37:27;14.10;;;6.10;;
60908;SDS011;46780;48.128;-1.704;2023-07-08T03:39:55;13.40;;;6.05;;
60908;SDS011;46780;48.128;-1.704;2023-07-08T03:42:21;15.13;;;6.50;;
60908;SDS011;46780;48.128;-1.704;2023-07-08T03:44:48;14.73;;;6.60;;
60908;SDS011;46780;48.128;-1.704;2023-07-08T03:47:14;13.18;;;7.22;;
60908;SDS011;46780;48.128;-1.704;2023-07-08T03:49:41;12.43;;;6.60;;
60908;SDS011;46780;48.128;-1.704;2023-07-08T03:52:07;13.73;;;6.82;;
60908;SDS011;46780;48.128;-1.704;2023-07-08T03:54:40;13.43;;;6.80;;
60908;SDS011;46780;48.128;-1.704;2023-07-08T03:57:08;15.73;;;7.13;;
60908;SDS011;46780;48.128;-1.704;2023-07-08T03:59:35;17.25;;;7.03;;
60908;SDS011;46780;48.128;-1.704;2023-07-08T04:02:01;13.90;;;6.93;;
60908;SDS011;46780;48.128;-1.704;2023-07-08T04:04:28;13.82;;;6.80;;
60908;SDS011;46780;48.128;-1.704;2023-07-08T04:06:54;17.05;;;7.07;;
60908;SDS011;46780;48.128;-1.704;2023-07-08T04:09:21;13.23;;;6.80;;
60908;SDS011;46780;48.128;-1.704;2023-07-08T04:11:47;13.18;;;6.53;;
60908;SDS011;46780;48.128;-1.704;2023-07-08T04:14:15;13.90;;;6.95;;
60908;SDS011;46780;48.128;-1.704;2023-07-08T04:16:43;15.98;;;7.32;;
60908;SDS011;46780;48.128;-1.704;2023-07-08T04:19:13;14.40;;;7.15;;
60908;SDS011;46780;48.128;-1.704;2023-07-08T04:21:40;16.63;;;7.18;;
60908;SDS011;46780;48.128;-1.704;2023-07-08T04:24:08;12.52;;;6.90;;
60908;SDS011;46780;48.128;-1.704;2023-07-08T04:26:36;16.25;;;6.82;;
60908;SDS011;46780;48.128;-1.704;2023-07-08T04:29:02;14.30;;;6.95;;
60908;SDS011;46780;48.128;-1.704;2023-07-08T04:31:30;14.82;;;7.45;;
60908;SDS011;46780;48.128;-1.704;2023-07-08T04:33:56;13.52;;;7.20;;
60908;SDS011;46780;48.128;-1.704;2023-07-08T04:36:23;15.45;;;7.35;;
60908;SDS011;46780;48.128;-1.704;2023-07-08T04:38:49;14.98;;;7.47;;
60908;SDS011;46780;48.128;-1.704;2023-07-08T04:41:16;11.98;;;6.28;;
60908;SDS011;46780;48.128;-1.704;2023-07-08T04:43:42;12.50;;;6.70;;
60908;SDS011;46780;48.128;-1.704;2023-07-08T04:46:13;13.07;;;7.00;;
60908;SDS011;46780;48.128;-1.704;2023-07-08T04:48:46;13.77;;;6.47;;
60908;SDS011;46780;48.128;-1.704;2023-07-08T04:51:12;14.07;;;6.75;;
60908;SDS011;46780;48.128;-1.704;2023-07-08T04:53:39;17.23;;;6.95;;
60908;SDS011;46780;48.128;-1.704;2023-07-08T04:56:05;15.00;;;7.10;;
60908;SDS011;46780;48.128;-1.704;2023-07-08T04:58:33;13.38;;;7.53;;
60908;SDS011;46780;48.128;-1.704;2023-07-08T05:00:59;15.23;;;6.78;;
60908;SDS011;46780;48.128;-1.704;2023-07-08T05:03:26;13.77;;;7.30;;
60908;SDS011;46780;48.128;-1.704;2023-07-08T05:05:54;13.63;;;6.97;;
60908;SDS011;46780;48.128;-1.704;2023-07-08T05:08:20;14.30;;;6.63;;
60908;SDS011;46780;48.128;-1.704;2023-07-08T05:10:47;14.48;;;7.03;;
60908;SDS011;46780;48.128;-1.704;2023-07-08T05:13:13;13.75;;;6.50;;
60908;SDS011;46780;48.128;-1.704;2023-07-08T05:15:40;17.42;;;7.28;;
60908;SDS011;46780;48.128;-1.704;2023-07-08T05:18:06;13.00;;;6.47;;
60908;SDS011;46780;48.128;-1.704;2023-07-08T05:20:33;12.27;;;6.50;;
60908;SDS011;46780;48.128;-1.704;2023-07-08T05:23:01;12.63;;;6.25;;
60908;SDS011;46780;48.128;-1.704;2023-07-08T05:25:30;12.85;;;6.03;;
60908;SDS011;46780;48.128;-1.704;2023-07-08T05:27:57;11.98;;;6.50;;
60908;SDS011;46780;48.128;-1.704;2023-07-08T05:30:24;12.82;;;6.47;;
60908;SDS011;46780;48.128;-1.704;2023-07-08T05:32:50;16.48;;;6.70;;
60908;SDS011;46780;48.128;-1.704;2023-07-08T05:35:19;15.63;;;6.40;;
60908;SDS011;46780;48.128;-1.704;2023-07-08T05:37:45;14.07;;;6.07;;
60908;SDS011;46780;48.128;-1.704;2023-07-08T05:40:13;14.40;;;6.30;;
60908;SDS011;46780;48.128;-1.704;2023-07-08T05:42:40;14.07;;;6.30;;
60908;SDS011;46780;48.128;-1.704;2023-07-08T05:45:06;14.25;;;6.47;;
60908;SDS011;46780;48.128;-1.704;2023-07-08T05:47:33;14.07;;;6.00;;
60908;SDS011;46780;48.128;-1.704;2023-07-08T05:49:59;12.55;;;5.97;;
60908;SDS011;46780;48.128;-1.704;2023-07-08T05:52:26;12.35;;;5.80;;
60908;SDS011;46780;48.128;-1.704;2023-07-08T05:54:53;12.82;;;6.07;;
60908;SDS011;46780;48.128;-1.704;2023-07-08T05:57:21;13.70;;;6.10;;
60908;SDS011;46780;48.128;-1.704;2023-07-08T05:59:47;12.55;;;5.72;;
60908;SDS011;46780;48.128;-1.704;2023-07-08T06:02:14;12.40;;;5.80;;
60908;SDS011;46780;48.128;-1.704;2023-07-08T06:04:40;13.68;;;5.82;;
60908;SDS011;46780;48.128;-1.704;2023-07-08T06:07:07;11.88;;;5.63;;
60908;SDS011;46780;48.128;-1.704;2023-07-08T06:09:34;15.32;;;6.15;;
60908;SDS011;46780;48.128;-1.704;2023-07-08T06:12:00;11.05;;;5.15;;
60908;SDS011;46780;48.128;-1.704;2023-07-08T06:14:28;12.93;;;5.25;;
60908;SDS011;46780;48.128;-1.704;2023-07-08T06:16:57;10.35;;;5.05;;
60908;SDS011;46780;48.128;-1.704;2023-07-08T06:19:23;12.40;;;4.80;;
60908;SDS011;46780;48.128;-1.704;2023-07-08T06:21:50;13.02;;;4.85;;
60908;SDS011;46780;48.128;-1.704;2023-07-08T06:24:17;12.32;;;5.50;;
60908;SDS011;46780;48.128;-1.704;2023-07-08T06:26:43;11.63;;;5.53;;
60908;SDS011;46780;48.128;-1.704;2023-07-08T06:29:09;12.13;;;4.97;;
60908;SDS011;46780;48.128;-1.704;2023-07-08T06:31:37;12.10;;;5.10;;
60908;SDS011;46780;48.128;-1.704;2023-07-08T06:34:04;11.73;;;5.28;;
60908;SDS011;46780;48.128;-1.704;2023-07-08T06:36:31;13.52;;;5.80;;
60908;SDS011;46780;48.128;-1.704;2023-07-08T06:38:57;14.18;;;5.68;;
60908;SDS011;46780;48.128;-1.704;2023-07-08T06:41:24;12.05;;;5.45;;
60908;SDS011;46780;48.128;-1.704;2023-07-08T06:43:50;10.20;;;5.05;;
60908;SDS011;46780;48.128;-1.704;2023-07-08T06:46:17;13.13;;;5.65;;
60908;SDS011;46780;48.128;-1.704;2023-07-08T06:48:45;13.10;;;5.43;;
60908;SDS011;46780;48.128;-1.704;2023-07-08T06:51:11;11.52;;;5.47;;
60908;SDS011;46780;48.128;-1.704;2023-07-08T06:53:38;11.45;;;5.60;;
60908;SDS011;46780;48.128;-1.704;2023-07-08T06:56:04;10.95;;;5.50;;
60908;SDS011;46780;48.128;-1.704;2023-07-08T06:58:31;12.77;;;6.13;;
60908;SDS011;46780;48.128;-1.704;2023-07-08T07:00:57;14.93;;;5.78;;
60908;SDS011;46780;48.128;-1.704;2023-07-08T07:03:24;11.30;;;5.30;;
60908;SDS011;46780;48.128;-1.704;2023-07-08T07:05:52;11.45;;;5.78;;
60908;SDS011;46780;48.128;-1.704;2023-07-08T07:08:19;12.13;;;5.68;;
60908;SDS011;46780;48.128;-1.704;2023-07-08T07:10:45;12.63;;;5.63;;
60908;SDS011;46780;48.128;-1.704;2023-07-08T07:13:11;13.43;;;5.90;;
60908;SDS011;46780;48.128;-1.704;2023-07-08T07:15:38;10.85;;;5.68;;
60908;SDS011;46780;48.128;-1.704;2023-07-08T07:18:05;13.45;;;5.90;;
60908;SDS011;46780;48.128;-1.704;2023-07-08T07:20:32;16.42;;;6.38;;
60908;SDS011;46780;48.128;-1.704;2023-07-08T07:23:03;12.52;;;5.97;;
60908;SDS011;46780;48.128;-1.704;2023-07-08T07:25:30;13.00;;;6.28;;
60908;SDS011;46780;48.128;-1.704;2023-07-08T07:27:56;12.35;;;6.45;;
60908;SDS011;46780;48.128;-1.704;2023-07-08T07:30:23;14.80;;;6.18;;
60908;SDS011;46780;48.128;-1.704;2023-07-08T07:32:49;14.43;;;6.43;;
60908;SDS011;46780;48.128;-1.704;2023-07-08T07:35:16;11.32;;;6.28;;
60908;SDS011;46780;48.128;-1.704;2023-07-08T07:37:42;14.80;;;6.18;;
60908;SDS011;46780;48.128;-1.704;2023-07-08T07:40:11;14.68;;;6.47;;
60908;SDS011;46780;48.128;-1.704;2023-07-08T07:42:39;13.20;;;6.40;;
60908;SDS011;46780;48.128;-1.704;2023-07-08T07:45:06;13.63;;;6.30;;
60908;SDS011;46780;48.128;-1.704;2023-07-08T07:47:34;12.35;;;6.07;;
60908;SDS011;46780;48.128;-1.704;2023-07-08T07:50:03;14.02;;;6.38;;
60908;SDS011;46780;48.128;-1.704;2023-07-08T07:52:31;13.10;;;6.28;;
60908;SDS011;46780;48.128;-1.704;2023-07-08T07:54:58;18.67;;;10.18;;
60908;SDS011;46780;48.128;-1.704;2023-07-08T07:57:26;20.40;;;9.35;;
60908;SDS011;46780;48.128;-1.704;2023-07-08T07:59:52;15.32;;;7.07;;
60908;SDS011;46780;48.128;-1.704;2023-07-08T08:02:18;12.98;;;6.85;;
60908;SDS011;46780;48.128;-1.704;2023-07-08T08:04:45;18.73;;;11.30;;
60908;SDS011;46780;48.128;-1.704;2023-07-08T08:07:11;27.42;;;18.02;;
60908;SDS011;46780;48.128;-1.704;2023-07-08T08:09:38;26.98;;;16.95;;
60908;SDS011;46780;48.128;-1.704;2023-07-08T08:12:06;19.60;;;11.50;;
60908;SDS011;46780;48.128;-1.704;2023-07-08T08:14:35;12.60;;;5.95;;
60908;SDS011;46780;48.128;-1.704;2023-07-08T08:17:02;15.23;;;6.05;;
60908;SDS011;46780;48.128;-1.704;2023-07-08T08:19:28;11.30;;;5.70;;
60908;SDS011;46780;48.128;-1.704;2023-07-08T08:21:55;12.45;;;5.53;;
60908;SDS011;46780;48.128;-1.704;2023-07-08T08:24:21;12.93;;;5.88;;
60908;SDS011;46780;48.128;-1.704;2023-07-08T08:26:48;10.60;;;4.20;;
60908;SDS011;46780;48.128;-1.704;2023-07-08T08:29:15;10.13;;;4.55;;
60908;SDS011;46780;48.128;-1.704;2023-07-08T08:31:43;11.73;;;4.50;;
60908;SDS011;46780;48.128;-1.704;2023-07-08T08:34:09;10.98;;;4.85;;
60908;SDS011;46780;48.128;-1.704;2023-07-08T08:36:36;10.73;;;4.55;;
60908;SDS011;46780;48.128;-1.704;2023-07-08T08:39:02;10.75;;;4.57;;
60908;SDS011;46780;48.128;-1.704;2023-07-08T08:41:29;12.27;;;4.63;;
60908;SDS011;46780;48.128;-1.704;2023-07-08T08:43:57;12.32;;;4.80;;
60908;SDS011;46780;48.128;-1.704;2023-07-08T08:46:27;11.52;;;4.63;;
60908;SDS011;46780;48.128;-1.704;2023-07-08T08:49:02;9.70;;;4.43;;
60908;SDS011;46780;48.128;-1.704;2023-07-08T08:51:41;11.15;;;4.82;;
60908;SDS011;46780;48.128;-1.704;2023-07-08T08:54:08;12.07;;;4.65;;
60908;SDS011;46780;48.128;-1.704;2023-07-08T08:56:39;9.95;;;4.47;;
60908;SDS011;46780;48.128;-1.704;2023-07-08T08:59:14;12.38;;;4.53;;
60908;SDS011;46780;48.128;-1.704;2023-07-08T09:01:49;10.52;;;4.65;;
60908;SDS011;46780;48.128;-1.704;2023-07-08T09:04:19;12.13;;;5.05;;
60908;SDS011;46780;48.128;-1.704;2023-07-08T09:06:51;12.13;;;4.53;;
60908;SDS011;46780;48.128;-1.704;2023-07-08T09:09:27;8.60;;;3.70;;
60908;SDS011;46780;48.128;-1.704;2023-07-08T09:12:00;9.60;;;4.15;;
60908;SDS011;46780;48.128;-1.704;2023-07-08T09:17:01;11.32;;;4.68;;
60908;SDS011;46780;48.128;-1.704;2023-07-08T09:19:42;10.85;;;4.55;;
60908;SDS011;46780;48.128;-1.704;2023-07-08T09:22:11;10.23;;;4.45;;
60908;SDS011;46780;48.128;-1.704;2023-07-08T09:24:42;11.82;;;4.82;;
60908;SDS011;46780;48.128;-1.704;2023-07-08T09:27:10;14.63;;;4.70;;
60908;SDS011;46780;48.128;-1.704;2023-07-08T09:29:37;10.35;;;4.65;;
60908;SDS011;46780;48.128;-1.704;2023-07-08T09:32:11;9.93;;;4.22;;
60908;SDS011;46780;48.128;-1.704;2023-07-08T09:34:43;10.73;;;4.25;;
60908;SDS011;46780;48.128;-1.704;2023-07-08T09:39:57;8.63;;;4.35;;
60908;SDS011;46780;48.128;-1.704;2023-07-08T09:42:25;10.73;;;4.30;;
60908;SDS011;46780;48.128;-1.704;2023-07-08T09:44:54;10.82;;;4.25;;
60908;SDS011;46780;48.128;-1.704;2023-07-08T09:47:23;11.18;;;4.18;;
60908;SDS011;46780;48.128;-1.704;2023-07-08T09:49:53;11.07;;;4.00;;
60908;SDS011;46780;48.128;-1.704;2023-07-08T09:52:20;11.18;;;4.20;;
60908;SDS011;46780;48.128;-1.704;2023-07-08T09:54:47;11.88;;;4.32;;
60908;SDS011;46780;48.128;-1.704;2023-07-08T09:57:18;8.77;;;3.38;;
60908;SDS011;46780;48.128;-1.704;2023-07-08T09:59:53;7.57;;;3.38;;
60908;SDS011;46780;48.128;-1.704;2023-07-08T10:02:27;8.93;;;3.35;;
60908;SDS011;46780;48.128;-1.704;2023-07-08T10:04:59;9.18;;;3.83;;
60908;SDS011;46780;48.128;-1.704;2023-07-08T10:07:27;13.45;;;3.90;;
60908;SDS011;46780;48.128;-1.704;2023-07-08T10:09:56;11.48;;;3.40;;
60908;SDS011;46780;48.128;-1.704;2023-07-08T10:12:24;10.18;;;3.55;;
60908;SDS011;46780;48.128;-1.704;2023-07-08T10:14:54;10.35;;;3.47;;
60908;SDS011;46780;48.128;-1.704;2023-07-08T10:17:25;7.85;;;3.30;;
60908;SDS011;46780;48.128;-1.704;2023-07-08T10:19:51;10.48;;;3.22;;
60908;SDS011;46780;48.128;-1.704;2023-07-08T10:22:22;7.00;;;2.58;;
60908;SDS011;46780;48.128;-1.704;2023-07-08T10:25:10;8.45;;;3.15;;
60908;SDS011;46780;48.128;-1.704;2023-07-08T10:27:47;9.55;;;3.05;;
60908;SDS011;46780;48.128;-1.704;2023-07-08T10:30:22;9.07;;;3.25;;
60908;SDS011;46780;48.128;-1.704;2023-07-08T10:32:55;9.40;;;3.20;;
60908;SDS011;46780;48.128;-1.704;2023-07-08T10:35:36;9.13;;;3.30;;
60908;SDS011;46780;48.128;-1.704;2023-07-08T10:38:18;9.30;;;3.50;;
60908;SDS011;46780;48.128;-1.704;2023-07-08T10:40:58;11.25;;;3.53;;
60908;SDS011;46780;48.128;-1.704;2023-07-08T10:43:33;10.32;;;3.70;;
60908;SDS011;46780;48.128;-1.704;2023-07-08T10:48:49;8.35;;;3.20;;
60908;SDS011;46780;48.128;-1.704;2023-07-08T10:51:31;10.20;;;3.65;;
60908;SDS011;46780;48.128;-1.704;2023-07-08T10:54:12;11.85;;;4.10;;
60908;SDS011;46780;48.128;-1.704;2023-07-08T10:57:00;11.73;;;3.70;;
60908;SDS011;46780;48.128;-1.704;2023-07-08T10:59:40;11.18;;;3.90;;
60908;SDS011;46780;48.128;-1.704;2023-07-08T11:12:54;11.00;;;3.78;;
60908;SDS011;46780;48.128;-1.704;2023-07-08T11:15:25;10.93;;;3.70;;
60908;SDS011;46780;48.128;-1.704;2023-07-08T11:17:55;10.45;;;3.92;;
60908;SDS011;46780;48.128;-1.704;2023-07-08T11:20:25;8.77;;;3.38;;
60908;SDS011;46780;48.128;-1.704;2023-07-08T11:23:02;10.25;;;3.70;;
60908;SDS011;46780;48.128;-1.704;2023-07-08T11:25:34;11.07;;;3.70;;
60908;SDS011;46780;48.128;-1.704;2023-07-08T11:28:03;10.80;;;3.65;;
60908;SDS011;46780;48.128;-1.704;2023-07-08T11:30:32;9.60;;;3.60;;
60908;SDS011;46780;48.128;-1.704;2023-07-08T11:33:02;10.00;;;3.92;;
60908;SDS011;46780;48.128;-1.704;2023-07-08T11:35:34;9.20;;;3.50;;
60908;SDS011;46780;48.128;-1.704;2023-07-08T11:38:03;11.18;;;4.05;;
60908;SDS011;46780;48.128;-1.704;2023-07-08T11:40:30;9.75;;;3.13;;
60908;SDS011;46780;48.128;-1.704;2023-07-08T11:43:05;10.00;;;3.10;;
60908;SDS011;46780;48.128;-1.704;2023-07-08T11:45:32;8.18;;;3.20;;
60908;SDS011;46780;48.128;-1.704;2023-07-08T11:48:03;7.35;;;3.05;;
60908;SDS011;46780;48.128;-1.704;2023-07-08T11:50:35;11.30;;;3.42;;
60908;SDS011;46780;48.128;-1.704;2023-07-08T11:53:08;7.53;;;2.72;;
60908;SDS011;46780;48.128;-1.704;2023-07-08T11:55:37;10.07;;;3.40;;
60908;SDS011;46780;48.128;-1.704;2023-07-08T11:58:13;9.70;;;3.35;;
60908;SDS011;46780;48.128;-1.704;2023-07-08T12:00:50;8.25;;;3.50;;
60908;SDS011;46780;48.128;-1.704;2023-07-08T12:03:21;9.93;;;3.75;;
60908;SDS011;46780;48.128;-1.704;2023-07-08T12:05:48;9.15;;;3.65;;
60908;SDS011;46780;48.128;-1.704;2023-07-08T12:08:15;8.68;;;3.50;;
60908;SDS011;46780;48.128;-1.704;2023-07-08T12:10:46;10.43;;;3.85;;
60908;SDS011;46780;48.128;-1.704;2023-07-08T12:13:17;10.73;;;4.32;;
60908;SDS011;46780;48.128;-1.704;2023-07-08T12:15:46;7.72;;;3.50;;
60908;SDS011;46780;48.128;-1.704;2023-07-08T12:18:13;9.40;;;4.10;;
60908;SDS011;46780;48.128;-1.704;2023-07-08T12:20:42;10.02;;;3.70;;
60908;SDS011;46780;48.128;-1.704;2023-07-08T12:23:12;11.02;;;4.00;;
60908;SDS011;46780;48.128;-1.704;2023-07-08T12:25:40;9.90;;;3.65;;
60908;SDS011;46780;48.128;-1.704;2023-07-08T12:28:08;7.90;;;3.20;;
60908;SDS011;46780;48.128;-1.704;2023-07-08T12:30:37;8.13;;;3.40;;
60908;SDS011;46780;48.128;-1.704;2023-07-08T12:33:04;8.75;;;3.05;;
60908;SDS011;46780;48.128;-1.704;2023-07-08T12:35:37;8.82;;;3.30;;
60908;SDS011;46780;48.128;-1.704;2023-07-08T12:38:05;7.28;;;3.20;;
60908;SDS011;46780;48.128;-1.704;2023-07-08T12:40:40;7.40;;;3.20;;
60908;SDS011;46780;48.128;-1.704;2023-07-08T12:43:07;8.05;;;2.70;;
60908;SDS011;46780;48.128;-1.704;2023-07-08T12:45:37;6.55;;;2.70;;
60908;SDS011;46780;48.128;-1.704;2023-07-08T12:48:04;6.07;;;2.80;;
60908;SDS011;46780;48.128;-1.704;2023-07-08T12:50:31;8.15;;;2.83;;
60908;SDS011;46780;48.128;-1.704;2023-07-08T12:52:57;9.60;;;3.20;;
60908;SDS011;46780;48.128;-1.704;2023-07-08T12:55:24;8.45;;;2.83;;
60908;SDS011;46780;48.128;-1.704;2023-07-08T12:57:52;8.30;;;3.08;;
60908;SDS011;46780;48.128;-1.704;2023-07-08T13:00:21;10.45;;;3.65;;
60908;SDS011;46780;48.128;-1.704;2023-07-08T13:02:54;7.00;;;3.00;;
60908;SDS011;46780;48.128;-1.704;2023-07-08T13:05:23;7.55;;;3.13;;
60908;SDS011;46780;48.128;-1.704;2023-07-08T13:10:20;10.18;;;3.22;;
60908;SDS011;46780;48.128;-1.704;2023-07-08T13:12:50;9.07;;;3.35;;
60908;SDS011;46780;48.128;-1.704;2023-07-08T13:15:20;9.27;;;3.42;;
60908;SDS011;46780;48.128;-1.704;2023-07-08T13:17:49;8.85;;;3.28;;
60908;SDS011;46780;48.128;-1.704;2023-07-08T13:20:17;9.95;;;3.13;;
60908;SDS011;46780;48.128;-1.704;2023-07-08T13:22:47;14.07;;;3.10;;
60908;SDS011;46780;48.128;-1.704;2023-07-08T13:25:25;8.02;;;2.90;;
60908;SDS011;46780;48.128;-1.704;2023-07-08T13:27:54;9.65;;;2.83;;
60908;SDS011;46780;48.128;-1.704;2023-07-08T13:30:23;10.07;;;3.10;;
60908;SDS011;46780;48.128;-1.704;2023-07-08T13:32:51;8.37;;;2.90;;
60908;SDS011;46780;48.128;-1.704;2023-07-08T13:35:24;10.15;;;3.10;;
60908;SDS011;46780;48.128;-1.704;2023-07-08T13:37:53;8.55;;;3.53;;
60908;SDS011;46780;48.128;-1.704;2023-07-08T13:40:21;10.73;;;3.22;;
60908;SDS011;46780;48.128;-1.704;2023-07-08T13:42:51;9.90;;;3.17;;
60908;SDS011;46780;48.128;-1.704;2023-07-08T13:45:21;10.98;;;3.40;;
60908;SDS011;46780;48.128;-1.704;2023-07-08T13:48:03;9.70;;;3.45;;
60908;SDS011;46780;48.128;-1.704;2023-07-08T13:50:41;10.27;;;3.10;;
60908;SDS011;46780;48.128;-1.704;2023-07-08T13:53:16;7.28;;;2.90;;
60908;SDS011;46780;48.128;-1.704;2023-07-08T13:55:45;8.75;;;3.53;;
60908;SDS011;46780;48.128;-1.704;2023-07-08T13:58:14;10.02;;;3.13;;
60908;SDS011;46780;48.128;-1.704;2023-07-08T14:00:42;8.50;;;3.30;;
60908;SDS011;46780;48.128;-1.704;2023-07-08T14:03:09;9.05;;;3.47;;
60908;SDS011;46780;48.128;-1.704;2023-07-08T14:05:37;9.60;;;3.50;;
60908;SDS011;46780;48.128;-1.704;2023-07-08T14:08:07;11.38;;;4.03;;
60908;SDS011;46780;48.128;-1.704;2023-07-08T14:10:38;11.02;;;3.58;;
60908;SDS011;46780;48.128;-1.704;2023-07-08T14:13:06;10.50;;;3.67;;
60908;SDS011;46780;48.128;-1.704;2023-07-08T14:15:32;11.20;;;3.90;;
60908;SDS011;46780;48.128;-1.704;2023-07-08T14:17:59;8.40;;;3.45;;
60908;SDS011;46780;48.128;-1.704;2023-07-08T14:20:27;10.13;;;3.63;;
60908;SDS011;46780;48.128;-1.704;2023-07-08T14:22:54;9.80;;;3.70;;
60908;SDS011;46780;48.128;-1.704;2023-07-08T14:25:22;11.88;;;4.05;;
60908;SDS011;46780;48.128;-1.704;2023-07-08T14:27:49;9.65;;;4.25;;
60908;SDS011;46780;48.128;-1.704;2023-07-08T14:30:15;10.88;;;3.90;;
60908;SDS011;46780;48.128;-1.704;2023-07-08T14:32:42;10.82;;;3.85;;
60908;SDS011;46780;48.128;-1.704;2023-07-08T14:35:12;9.40;;;3.67;;
60908;SDS011;46780;48.128;-1.704;2023-07-08T14:37:42;8.82;;;4.00;;
60908;SDS011;46780;48.128;-1.704;2023-07-08T14:40:16;11.40;;;4.05;;
60908;SDS011;46780;48.128;-1.704;2023-07-08T14:42:56;10.13;;;3.70;;
60908;SDS011;46780;48.128;-1.704;2023-07-08T14:45:27;10.38;;;3.90;;
60908;SDS011;46780;48.128;-1.704;2023-07-08T14:47:55;8.20;;;3.80;;
60908;SDS011;46780;48.128;-1.704;2023-07-08T14:50:22;9.70;;;3.85;;
60908;SDS011;46780;48.128;-1.704;2023-07-08T14:52:57;11.40;;;3.63;;